createdAt,value
2022-09-06T00:01:26.443Z,10.65
2022-09-06T00:04:17.270Z,6.07
2022-09-06T00:07:07.360Z,6.88
2022-09-06T00:09:57.336Z,6.90
2022-09-06T00:12:47.930Z,5.65
2022-09-06T00:15:38.077Z,6.15
2022-09-06T00:18:28.177Z,8.93
2022-09-06T00:21:26.246Z,7.68
2022-09-06T00:24:16.418Z,8.27
2022-09-06T00:27:07.997Z,7.32
2022-09-06T00:29:58.168Z,8.63
2022-09-06T00:32:48.069Z,4.80
2022-09-06T00:35:38.471Z,8.68
2022-09-06T00:38:28.972Z,8.13
2022-09-06T00:41:19.466Z,10.35
2022-09-06T00:44:09.876Z,7.07
2022-09-06T00:47:00.452Z,6.22
2022-09-06T00:49:53.284Z,7.95
2022-09-06T00:52:46.876Z,7.38
2022-09-06T00:55:36.808Z,6.68
2022-09-06T00:58:28.045Z,7.47
2022-09-06T01:01:18.820Z,7.03
2022-09-06T01:04:09.416Z,5.63
2022-09-06T01:07:18.459Z,6.25
2022-09-06T01:10:30.779Z,6.18
2022-09-06T01:13:56.356Z,10.43
2022-09-06T01:17:14.617Z,5.00
2022-09-06T01:20:28.734Z,6.45
2022-09-06T01:23:40.332Z,8.23
2022-09-06T01:27:06.307Z,6.22
2022-09-06T01:30:05.229Z,9.43
2022-09-06T01:33:03.644Z,10.05
2022-09-06T01:36:01.500Z,7.40
2022-09-06T01:38:51.899Z,10.68
2022-09-06T01:41:41.895Z,5.60
2022-09-06T01:44:33.318Z,9.13
2022-09-06T01:47:42.261Z,7.07
2022-09-06T01:50:44.092Z,7.85
2022-09-06T01:53:39.799Z,8.48
2022-09-06T01:56:42.592Z,11.10
2022-09-06T01:59:56.493Z,6.53
2022-09-06T02:03:17.970Z,5.32
2022-09-06T02:06:21.062Z,9.43
2022-09-06T02:09:16.958Z,8.57
2022-09-06T02:12:12.222Z,7.50
2022-09-06T02:15:11.781Z,8.23
2022-09-06T02:18:09.152Z,9.25
2022-09-06T02:21:03.280Z,9.75
2022-09-06T02:23:54.466Z,7.75
2022-09-06T02:26:46.340Z,6.60
2022-09-06T02:29:36.617Z,6.47
2022-09-06T02:32:28.180Z,7.05
2022-09-06T02:35:18.364Z,13.15
2022-09-06T02:38:08.392Z,16.90
2022-09-06T02:40:59.057Z,15.40
2022-09-06T02:43:49.837Z,16.67
2022-09-06T02:46:39.897Z,14.00
2022-09-06T02:49:30.924Z,9.68
2022-09-06T02:52:20.782Z,9.00
2022-09-06T02:55:11.597Z,8.85
2022-09-06T02:58:02.463Z,10.15
2022-09-06T03:00:53.297Z,7.97
2022-09-06T03:03:43.811Z,9.25
2022-09-06T03:06:34.538Z,10.75
2022-09-06T03:09:25.260Z,9.70
2022-09-06T03:12:15.228Z,9.00
2022-09-06T03:15:06.072Z,13.05
2022-09-06T03:18:00.007Z,9.27
2022-09-06T03:20:52.050Z,8.65
2022-09-06T03:23:42.340Z,10.55
2022-09-06T03:26:33.226Z,11.02
2022-09-06T03:29:23.151Z,10.30
2022-09-06T03:32:13.069Z,12.32
2022-09-06T03:35:02.889Z,8.75
2022-09-06T03:37:53.311Z,12.57
2022-09-06T03:40:47.699Z,10.48
2022-09-06T03:43:37.994Z,8.40
2022-09-06T03:46:30.738Z,11.85
2022-09-06T03:49:20.796Z,15.75
2022-09-06T03:52:11.338Z,13.82
2022-09-06T03:55:01.699Z,10.00
2022-09-06T03:57:51.807Z,11.65
2022-09-06T04:00:41.859Z,12.82
2022-09-06T04:03:32.912Z,13.48
2022-09-06T04:06:23.149Z,11.90
2022-09-06T04:09:12.985Z,15.38
2022-09-06T04:12:03.480Z,9.35
2022-09-06T04:14:53.567Z,11.35
2022-09-06T04:17:45.937Z,16.55
2022-09-06T04:20:36.257Z,10.15
2022-09-06T04:23:28.668Z,9.90
2022-09-06T04:26:19.141Z,11.88
2022-09-06T04:29:09.183Z,12.90
2022-09-06T04:31:59.771Z,8.35
2022-09-06T04:34:50.188Z,14.27
2022-09-06T04:37:40.649Z,12.80
2022-09-06T04:40:30.664Z,10.63
2022-09-06T04:43:22.305Z,14.43
2022-09-06T04:46:24.046Z,12.68
2022-09-06T04:49:14.427Z,17.55
2022-09-06T04:52:04.274Z,11.30
2022-09-06T04:54:54.296Z,16.35
2022-09-06T04:57:47.476Z,10.00
2022-09-06T05:00:41.788Z,11.40
2022-09-06T05:03:32.146Z,14.23
2022-09-06T05:06:24.577Z,12.63
2022-09-06T05:09:15.152Z,11.57
2022-09-06T05:12:05.837Z,14.32
2022-09-06T05:14:56.004Z,12.15
2022-09-06T05:17:46.628Z,12.32
2022-09-06T05:20:37.004Z,18.30
2022-09-06T05:23:28.055Z,13.32
2022-09-06T05:26:18.288Z,14.18
2022-09-06T05:29:08.812Z,16.40
2022-09-06T05:31:59.030Z,18.40
2022-09-06T05:34:49.297Z,15.13
2022-09-06T05:37:39.194Z,13.43
2022-09-06T05:40:29.146Z,13.43
2022-09-06T05:43:19.367Z,19.20
2022-09-06T05:46:10.067Z,13.77
2022-09-06T05:49:04.701Z,14.43
2022-09-06T05:51:55.297Z,11.68
2022-09-06T05:54:45.501Z,13.77
2022-09-06T05:57:35.623Z,14.00
2022-09-06T06:00:25.744Z,13.13
2022-09-06T06:03:15.497Z,14.32
2022-09-06T06:06:06.162Z,18.25
2022-09-06T06:08:57.026Z,15.70
2022-09-06T06:11:47.253Z,17.73
2022-09-06T06:14:37.572Z,17.75
2022-09-06T06:17:27.734Z,15.35
2022-09-06T06:20:18.034Z,15.95
2022-09-06T06:23:08.449Z,12.60
2022-09-06T06:25:58.620Z,15.45
2022-09-06T06:28:49.039Z,14.73
2022-09-06T06:31:39.175Z,19.45
2022-09-06T06:34:29.341Z,16.13
2022-09-06T06:37:19.652Z,12.15
2022-09-06T06:40:10.450Z,22.52
2022-09-06T06:43:01.506Z,16.33
2022-09-06T06:45:51.762Z,14.68
2022-09-06T06:48:44.015Z,13.98
2022-09-06T06:51:39.180Z,16.88
2022-09-06T06:54:29.819Z,12.55
2022-09-06T06:57:19.890Z,13.32
2022-09-06T07:00:11.130Z,11.70
2022-09-06T07:03:01.330Z,18.15
2022-09-06T07:09:01.715Z,11.20
2022-09-06T07:11:52.100Z,12.13
2022-09-06T07:14:42.765Z,11.75
2022-09-06T07:17:32.819Z,8.52
2022-09-06T07:20:23.723Z,10.50
2022-09-06T07:26:29.738Z,13.38
2022-09-06T07:29:19.748Z,9.43
2022-09-06T07:35:06.089Z,6.35
2022-09-06T07:37:57.928Z,6.90
2022-09-06T07:40:54.318Z,8.55
2022-09-06T07:43:45.048Z,7.25
2022-09-06T07:46:35.340Z,8.80
2022-09-06T07:49:25.686Z,7.88
2022-09-06T07:55:26.128Z,5.45
2022-09-06T07:58:16.245Z,6.75
2022-09-06T08:01:30.441Z,7.45
2022-09-06T08:04:20.719Z,8.40
2022-09-06T08:10:21.458Z,7.10
2022-09-06T08:13:11.631Z,6.78
2022-09-06T08:16:03.914Z,8.60
2022-09-06T08:19:00.983Z,5.43
2022-09-06T08:21:54.262Z,5.40
2022-09-06T08:24:44.104Z,5.97
2022-09-06T08:27:34.691Z,4.53
2022-09-06T08:30:25.182Z,5.43
2022-09-06T08:33:15.898Z,7.38
2022-09-06T08:36:07.687Z,7.50
2022-09-06T08:39:03.727Z,4.50
2022-09-06T08:42:05.424Z,6.65
2022-09-06T08:44:58.598Z,4.65
2022-09-06T08:47:50.699Z,6.88
2022-09-06T08:50:47.285Z,7.07
2022-09-06T08:53:46.460Z,6.93
2022-09-06T08:56:50.080Z,6.05
2022-09-06T08:59:42.928Z,5.05
2022-09-06T09:02:42.914Z,5.20
2022-09-06T09:05:35.527Z,8.02
2022-09-06T09:08:39.697Z,7.95
2022-09-06T09:11:33.373Z,8.32
2022-09-06T09:14:36.064Z,5.57
2022-09-06T09:17:29.291Z,9.18
2022-09-06T09:20:19.408Z,6.78
2022-09-06T09:23:09.592Z,7.07
2022-09-06T09:26:04.952Z,7.93
2022-09-06T09:29:09.627Z,5.53
2022-09-06T09:32:00.029Z,6.68
2022-09-06T09:34:51.692Z,8.50
2022-09-06T09:40:41.732Z,3.92
2022-09-06T09:43:36.303Z,10.77
2022-09-06T09:46:26.690Z,6.03
2022-09-06T09:49:35.222Z,5.55
2022-09-06T09:52:30.994Z,6.68
2022-09-06T09:55:24.970Z,7.57
2022-09-06T09:58:32.014Z,14.10
2022-09-06T10:01:27.045Z,4.38
2022-09-06T10:07:43.714Z,7.95
2022-09-06T10:10:38.375Z,8.88
2022-09-06T10:13:30.271Z,6.00
2022-09-06T10:16:44.911Z,9.77
2022-09-06T10:19:45.610Z,6.43
2022-09-06T10:22:58.767Z,3.75
2022-09-06T10:26:08.039Z,6.57
2022-09-06T10:29:11.900Z,10.15
2022-09-06T10:32:13.468Z,5.78
2022-09-06T10:35:16.001Z,9.35
2022-09-06T10:38:15.703Z,11.38
2022-09-06T10:41:43.419Z,7.85
2022-09-06T10:44:55.760Z,9.10
2022-09-06T10:48:13.901Z,11.30
2022-09-06T10:51:14.703Z,7.53
2022-09-06T10:54:11.069Z,9.52
2022-09-06T11:00:25.522Z,5.20
2022-09-06T11:06:45.680Z,9.07
2022-09-06T11:09:48.570Z,10.65
2022-09-06T11:13:00.405Z,7.45
2022-09-06T11:16:13.516Z,4.57
2022-09-06T11:19:11.360Z,5.93
2022-09-06T11:22:39.296Z,5.45
2022-09-06T11:26:03.529Z,6.70
2022-09-06T11:28:57.848Z,6.00
2022-09-06T11:32:25.119Z,4.50
2022-09-06T11:35:24.171Z,6.63
2022-09-06T11:38:14.340Z,8.23
2022-09-06T11:41:12.916Z,6.10
2022-09-06T11:44:04.071Z,7.25
2022-09-06T11:46:54.159Z,10.13
2022-09-06T11:49:44.544Z,11.15
2022-09-06T11:52:59.297Z,6.38
2022-09-06T11:55:52.916Z,7.32
2022-09-06T11:59:03.723Z,3.75
2022-09-06T12:02:05.857Z,6.85
2022-09-06T12:05:00.445Z,10.00
2022-09-06T12:08:15.898Z,4.78
2022-09-06T12:11:30.626Z,5.50
2022-09-06T12:14:33.311Z,2.67
2022-09-06T12:17:24.573Z,6.15
2022-09-06T12:20:51.063Z,5.57
2022-09-06T12:23:42.271Z,4.68
2022-09-06T12:26:55.666Z,5.50
2022-09-06T12:29:55.019Z,7.40
2022-09-06T12:32:50.064Z,7.60
2022-09-06T12:39:09.677Z,5.70
2022-09-06T12:42:07.175Z,6.72
2022-09-06T12:44:57.676Z,6.28
2022-09-06T12:47:48.574Z,5.28
2022-09-06T12:50:39.209Z,6.35
2022-09-06T12:53:31.479Z,4.50
2022-09-06T12:56:23.623Z,2.88
2022-09-06T12:59:21.466Z,7.90
2022-09-06T13:02:16.417Z,6.25
2022-09-06T13:05:09.377Z,8.68
2022-09-06T13:08:03.436Z,7.80
2022-09-06T13:10:54.452Z,5.68
2022-09-06T13:13:48.702Z,8.27
2022-09-06T13:16:46.083Z,5.95
2022-09-06T13:19:39.222Z,11.07
2022-09-06T13:22:47.990Z,7.28
2022-09-06T13:25:49.335Z,5.25
2022-09-06T13:28:39.877Z,9.02
2022-09-06T13:31:30.346Z,7.75
2022-09-06T13:34:32.579Z,5.20
2022-09-06T13:37:31.479Z,7.07
2022-09-06T13:41:06.943Z,12.85
2022-09-06T13:44:04.388Z,5.78
2022-09-06T13:46:55.345Z,7.97
2022-09-06T13:49:45.487Z,7.95
2022-09-06T13:52:36.064Z,9.98
2022-09-06T13:55:31.907Z,4.35
2022-09-06T13:58:22.515Z,5.43
2022-09-06T14:01:14.305Z,6.70
2022-09-06T14:04:05.546Z,11.10
2022-09-06T14:06:55.780Z,4.35
2022-09-06T14:09:45.872Z,9.50
2022-09-06T14:12:36.387Z,5.85
2022-09-06T14:15:26.764Z,7.05
2022-09-06T14:18:17.387Z,8.88
2022-09-06T14:21:07.939Z,3.72
2022-09-06T14:24:03.343Z,4.90
2022-09-06T14:26:54.639Z,6.25
2022-09-06T14:29:44.712Z,7.93
2022-09-06T14:32:35.604Z,4.80
2022-09-06T14:35:27.620Z,5.80
2022-09-06T14:38:17.919Z,3.95
2022-09-06T14:41:09.712Z,9.15
2022-09-06T14:44:00.850Z,9.57
2022-09-06T14:46:53.386Z,5.60
2022-09-06T14:49:43.634Z,7.45
2022-09-06T14:52:34.659Z,5.60
2022-09-06T14:55:25.323Z,6.35
2022-09-06T14:58:15.658Z,8.93
2022-09-06T15:01:13.697Z,6.32
2022-09-06T15:04:05.263Z,6.78
2022-09-06T15:06:55.446Z,6.03
2022-09-06T15:09:46.126Z,7.30
2022-09-06T15:12:37.359Z,8.18
2022-09-06T15:15:28.165Z,6.50
2022-09-06T15:18:18.513Z,8.57
2022-09-06T15:21:14.489Z,12.50
2022-09-06T15:24:11.004Z,8.95
2022-09-06T15:27:02.770Z,7.70
2022-09-06T15:29:52.897Z,11.77
2022-09-06T15:32:43.224Z,9.25
2022-09-06T15:35:33.503Z,5.22
2022-09-06T15:38:24.276Z,3.22
2022-09-06T15:41:20.812Z,5.15
2022-09-06T15:44:16.540Z,3.33
2022-09-06T15:47:06.735Z,6.68
2022-09-06T15:49:57.365Z,7.07
2022-09-06T15:52:47.383Z,8.52
2022-09-06T15:55:56.142Z,5.32
2022-09-06T15:58:46.822Z,6.28
2022-09-06T16:01:38.569Z,4.63
2022-09-06T16:04:29.016Z,5.95
2022-09-06T16:07:19.545Z,6.75
2022-09-06T16:10:11.545Z,9.73
2022-09-06T16:13:01.668Z,3.38
2022-09-06T16:16:00.928Z,2.95
2022-09-06T16:18:54.149Z,4.60
2022-09-06T16:21:44.652Z,3.88
2022-09-06T16:24:34.690Z,3.65
2022-09-06T16:27:25.167Z,5.13
2022-09-06T16:30:15.111Z,7.25
2022-09-06T16:33:05.515Z,10.75
2022-09-06T16:35:59.158Z,6.22
2022-09-06T16:38:50.360Z,6.90
2022-09-06T16:41:43.339Z,2.72
2022-09-06T16:44:33.348Z,7.37
2022-09-06T16:47:23.864Z,6.18
2022-09-06T16:50:14.005Z,6.50
2022-09-06T16:53:04.347Z,4.95
2022-09-06T16:55:54.358Z,3.22
2022-09-06T16:58:56.411Z,4.57
2022-09-06T17:01:47.314Z,6.78
2022-09-06T17:04:37.685Z,4.95
2022-09-06T17:07:28.055Z,4.78
2022-09-06T17:10:18.886Z,5.05
2022-09-06T17:13:09.259Z,3.47
2022-09-06T17:16:21.951Z,14.77
2022-09-06T17:19:13.998Z,6.38
2022-09-06T17:22:05.341Z,7.97
2022-09-06T17:24:55.710Z,4.65
2022-09-06T17:27:46.086Z,4.13
2022-09-06T17:30:39.603Z,4.30
2022-09-06T17:33:31.039Z,5.05
2022-09-06T17:36:24.219Z,4.65
2022-09-06T17:39:18.258Z,8.77
2022-09-06T17:42:08.735Z,7.80
2022-09-06T17:44:59.195Z,5.82
2022-09-06T17:47:49.467Z,5.47
2022-09-06T17:50:41.438Z,6.65
2022-09-06T17:53:32.004Z,7.35
2022-09-06T17:56:23.131Z,4.80
2022-09-06T17:59:14.235Z,6.35
2022-09-06T18:02:05.310Z,11.55
2022-09-06T18:04:55.347Z,5.20
2022-09-06T18:07:45.818Z,8.18
2022-09-06T18:10:37.672Z,10.10
2022-09-06T18:13:29.296Z,5.90
2022-09-06T18:16:19.662Z,5.10
2022-09-06T18:19:10.223Z,4.93
2022-09-06T18:22:00.446Z,6.13
2022-09-06T18:24:53.079Z,10.00
2022-09-06T18:27:46.564Z,7.43
2022-09-06T18:30:37.033Z,5.15
2022-09-06T18:33:27.425Z,5.85
2022-09-06T18:36:19.404Z,6.18
2022-09-06T18:39:11.225Z,7.60
2022-09-06T18:42:01.149Z,6.10
2022-09-06T18:44:51.575Z,9.40
2022-09-06T18:47:43.151Z,10.20
2022-09-06T18:50:38.102Z,4.95
2022-09-06T18:53:29.642Z,7.00
2022-09-06T18:56:20.227Z,9.02
2022-09-06T18:59:11.722Z,9.05
2022-09-06T19:02:01.845Z,7.90
2022-09-06T19:04:54.301Z,11.02
2022-09-06T19:07:44.835Z,9.30
2022-09-06T19:10:35.265Z,6.13
2022-09-06T19:13:25.245Z,13.90
2022-09-06T19:16:16.140Z,9.25
2022-09-06T19:19:08.336Z,9.40
2022-09-06T19:21:58.599Z,6.25
2022-09-06T19:24:49.208Z,6.93
2022-09-06T19:27:39.885Z,11.35
2022-09-06T19:30:32.664Z,10.38
2022-09-06T19:33:22.748Z,15.10
2022-09-06T19:36:14.004Z,9.65
2022-09-06T19:39:07.178Z,8.70
2022-09-06T19:41:57.963Z,15.03
2022-09-06T19:44:48.247Z,10.15
2022-09-06T19:47:38.758Z,11.20
2022-09-06T19:50:29.698Z,11.27
2022-09-06T19:53:19.875Z,10.73
2022-09-06T19:56:22.861Z,7.93
2022-09-06T19:59:14.421Z,8.23
2022-09-06T20:02:04.915Z,11.73
2022-09-06T20:04:55.500Z,9.00
2022-09-06T20:07:46.032Z,10.15
2022-09-06T20:10:35.945Z,11.02
2022-09-06T20:13:26.539Z,11.48
2022-09-06T20:16:20.589Z,10.27
2022-09-06T20:19:12.498Z,15.90
2022-09-06T20:22:03.449Z,7.70
2022-09-06T20:24:53.434Z,9.07
2022-09-06T20:27:44.679Z,15.68
2022-09-06T20:30:35.092Z,14.90
2022-09-06T20:33:25.155Z,11.05
2022-09-06T20:36:15.638Z,14.98
2022-09-06T20:39:06.242Z,13.82
2022-09-06T20:41:56.943Z,12.80
2022-09-06T20:44:47.186Z,12.98
2022-09-06T20:47:37.168Z,10.02
2022-09-06T20:50:27.494Z,10.57
2022-09-06T20:53:18.062Z,13.15
2022-09-06T20:56:12.172Z,11.88
2022-09-06T20:59:05.130Z,11.57
2022-09-06T21:01:55.275Z,11.00
2022-09-06T21:04:45.351Z,15.07
2022-09-06T21:07:35.706Z,17.42
2022-09-06T21:10:25.923Z,17.45
2022-09-06T21:13:16.324Z,11.65
2022-09-06T21:16:07.188Z,12.40
2022-09-06T21:19:00.998Z,14.90
2022-09-06T21:21:51.205Z,12.75
2022-09-06T21:24:41.467Z,13.77
2022-09-06T21:27:31.696Z,13.23
2022-09-06T21:30:22.358Z,13.20
2022-09-06T21:33:12.644Z,10.38
2022-09-06T21:36:06.934Z,9.82
2022-09-06T21:39:00.108Z,15.23
2022-09-06T21:41:51.688Z,13.98
2022-09-06T21:44:41.847Z,8.27
2022-09-06T21:47:31.720Z,11.10
2022-09-06T21:50:22.229Z,8.15
2022-09-06T21:53:12.450Z,13.27
2022-09-06T21:56:04.942Z,16.88
2022-09-06T21:58:57.442Z,16.55
2022-09-06T22:01:47.706Z,9.40
2022-09-06T22:04:37.957Z,12.05
2022-09-06T22:07:28.084Z,12.18
2022-09-06T22:10:18.420Z,10.20
2022-09-06T22:13:08.490Z,12.65
2022-09-06T22:16:07.069Z,10.85
2022-09-06T22:18:57.828Z,12.73
2022-09-06T22:21:48.070Z,15.00
2022-09-06T22:24:38.541Z,10.77
2022-09-06T22:27:28.756Z,9.45
2022-09-06T22:30:22.619Z,8.43
2022-09-06T22:33:16.256Z,7.82
2022-09-06T22:36:07.366Z,7.28
2022-09-06T22:38:58.929Z,13.23
2022-09-06T22:41:49.238Z,9.50
2022-09-06T22:44:39.177Z,7.28
2022-09-06T22:47:29.700Z,8.57
2022-09-06T22:50:19.904Z,9.60
2022-09-06T22:53:11.311Z,11.20
2022-09-06T22:56:02.461Z,7.97
2022-09-06T22:58:52.701Z,7.70
2022-09-06T23:01:43.660Z,9.13
2022-09-06T23:04:33.630Z,11.93
2022-09-06T23:07:23.892Z,11.07
2022-09-06T23:10:14.228Z,8.52
2022-09-06T23:13:04.591Z,8.48
2022-09-06T23:15:55.141Z,7.57
2022-09-06T23:18:46.116Z,7.38
2022-09-06T23:21:36.471Z,8.32
2022-09-06T23:24:27.297Z,9.00
2022-09-06T23:27:18.710Z,9.88
2022-09-06T23:30:09.645Z,9.60
2022-09-06T23:32:59.884Z,8.98
2022-09-06T23:35:54.194Z,7.10
2022-09-06T23:38:44.681Z,6.93
2022-09-06T23:41:34.956Z,10.80
2022-09-06T23:44:25.169Z,11.35
2022-09-06T23:47:15.566Z,9.32
2022-09-06T23:50:07.247Z,13.18
2022-09-06T23:52:57.539Z,10.38
2022-09-06T23:55:48.052Z,7.35
2022-09-06T23:58:38.612Z,7.13
